Time;durP1;ratioP1;P1;durP2;ratioP2;P2;SDS_P1;SDS_P2;PMS_P1;PMS_P2;Temp;Humidity;BMP_temperature;BMP_pressure;BME280_temperature;BME280_humidity;BME280_pressure;Samples;Min_cycle;Max_cycle;Signal;HPM_P1;HPM_P2
2024/03/12 00:00:32;;;;;;;0.43;0.43;;;9.60;97.00;;;;;;10497125;28;20243;-76
2024/03/12 00:05:36;;;;;;;0.50;0.50;;;9.50;97.00;;;;;;10493056;28;20215;-77
2024/03/12 00:24:04;;;;;;;0.60;0.60;;;9.30;97.20;;;;;;10535540;28;20557;-77
2024/03/12 00:29:09;;;;;;;0.50;0.50;;;9.30;97.20;;;;;;10528865;28;20206;-76
2024/03/12 00:34:11;;;;;;;0.50;0.50;;;9.30;97.20;;;;;;10526689;28;20232;-78
2024/03/12 00:39:14;;;;;;;0.50;0.50;;;9.30;97.30;;;;;;10498521;28;20734;-77
2024/03/12 00:57:05;;;;;;;0.50;0.50;;;9.30;97.20;;;;;;10524859;28;20201;-77
2024/03/12 01:02:10;;;;;;;0.60;0.60;;;9.30;97.30;;;;;;10508132;28;20220;-77
2024/03/12 01:07:12;;;;;;;0.60;0.60;;;9.30;97.10;;;;;;10502144;28;20221;-77
2024/03/12 01:12:16;;;;;;;0.60;0.60;;;9.30;97.00;;;;;;10501414;28;20208;-77
2024/03/12 01:17:22;;;;;;;0.67;0.67;;;9.30;97.10;;;;;;10505456;28;20217;-77
2024/03/12 01:22:24;;;;;;;0.50;0.50;;;9.30;97.10;;;;;;10520748;28;20651;-77
2024/03/12 01:27:28;;;;;;;0.60;0.60;;;9.30;97.20;;;;;;10496108;28;20224;-77
2024/03/12 01:32:30;;;;;;;0.53;0.53;;;9.30;97.10;;;;;;10498109;28;20200;-78
2024/03/12 01:37:34;;;;;;;0.50;0.50;;;9.30;97.10;;;;;;10496469;28;20607;-77
2024/03/12 01:42:37;;;;;;;0.47;0.47;;;9.30;97.20;;;;;;10496217;28;20232;-77
2024/03/12 01:47:43;;;;;;;0.50;0.50;;;9.20;96.80;;;;;;10521503;28;20236;-76
2024/03/12 01:52:47;;;;;;;0.50;0.50;;;9.20;96.90;;;;;;10503301;28;20193;-77
2024/03/12 01:57:51;;;;;;;0.60;0.60;;;9.20;97.00;;;;;;10504113;28;20736;-77
2024/03/12 02:02:54;;;;;;;0.50;0.50;;;9.20;96.60;;;;;;10495547;28;20224;-77
2024/03/12 02:07:56;;;;;;;0.50;0.50;;;9.10;96.30;;;;;;10499194;28;20713;-77
2024/03/12 02:13:00;;;;;;;0.60;0.60;;;8.90;96.60;;;;;;10500926;28;20200;-75
2024/03/12 02:18:02;;;;;;;0.60;0.60;;;8.90;96.80;;;;;;10516639;28;20220;-77
2024/03/12 02:23:05;;;;;;;0.50;0.50;;;8.90;96.70;;;;;;10495041;28;20193;-76
2024/03/12 02:28:09;;;;;;;0.60;0.60;;;8.80;96.80;;;;;;10503040;28;20265;-76
2024/03/12 02:33:11;;;;;;;0.60;0.60;;;8.80;96.70;;;;;;10527432;28;20196;-78
2024/03/12 02:38:15;;;;;;;0.60;0.60;;;8.70;96.60;;;;;;10502639;28;20242;-77
2024/03/12 02:43:19;;;;;;;0.53;0.53;;;8.70;96.90;;;;;;10530203;28;20204;-76
2024/03/12 02:48:21;;;;;;;0.60;0.60;;;8.60;96.80;;;;;;10517376;28;20220;-76
2024/03/12 02:53:24;;;;;;;0.50;0.50;;;8.50;96.90;;;;;;10496208;28;20220;-76
2024/03/12 02:58:29;;;;;;;0.60;0.60;;;8.50;96.90;;;;;;10533664;28;20220;-75
2024/03/12 03:03:33;;;;;;;0.50;0.50;;;8.40;97.00;;;;;;10532300;28;20203;-76
2024/03/12 03:08:37;;;;;;;0.60;0.60;;;8.30;97.20;;;;;;10497376;28;20272;-77
2024/03/12 03:13:41;;;;;;;0.53;0.53;;;8.30;97.50;;;;;;10493418;28;20549;-75
2024/03/12 03:18:43;;;;;;;0.53;0.53;;;8.40;97.70;;;;;;10508434;28;20261;-76
2024/03/12 03:23:45;;;;;;;0.60;0.60;;;8.40;97.80;;;;;;10527574;28;20756;-76
2024/03/12 03:28:49;;;;;;;0.50;0.50;;;8.40;97.20;;;;;;10501667;28;20224;-77
2024/03/12 03:33:52;;;;;;;0.50;0.50;;;8.40;96.90;;;;;;10524748;28;20200;-76
2024/03/12 03:38:54;;;;;;;0.60;0.60;;;8.30;97.00;;;;;;10527576;28;20274;-77
2024/03/12 03:43:58;;;;;;;0.60;0.60;;;8.30;97.10;;;;;;10507203;28;20192;-77
2024/03/12 03:49:00;;;;;;;0.70;0.70;;;8.30;97.30;;;;;;10541226;22;20235;-81
2024/03/12 03:54:02;;;;;;;0.60;0.60;;;8.30;97.20;;;;;;10558940;28;20200;-80
2024/03/12 03:59:06;;;;;;;0.50;0.50;;;8.40;97.80;;;;;;10510543;28;20208;-80
2024/03/12 04:04:12;;;;;;;0.80;0.80;;;8.50;98.00;;;;;;10493680;28;20246;-79
2024/03/12 04:09:15;;;;;;;0.70;0.70;;;8.70;98.10;;;;;;10514269;28;20238;-79
2024/03/12 04:14:18;;;;;;;0.70;0.70;;;8.80;98.00;;;;;;10533936;28;20192;-79
2024/03/12 04:19:21;;;;;;;0.80;0.80;;;8.90;97.90;;;;;;10528192;28;20212;-80
2024/03/12 04:24:24;;;;;;;0.80;0.80;;;9.00;97.80;;;;;;10494891;28;20578;-80
2024/03/12 04:29:28;;;;;;;0.80;0.80;;;9.10;97.70;;;;;;10523040;28;20219;-78
2024/03/12 04:34:33;;;;;;;0.70;0.70;;;9.20;97.50;;;;;;10533024;28;20227;-80
2024/03/12 04:39:38;;;;;;;0.80;0.80;;;9.30;97.10;;;;;;10502882;28;20216;-78
2024/03/12 04:44:42;;;;;;;0.80;0.80;;;9.40;96.80;;;;;;10531532;28;20200;-80
2024/03/12 04:49:45;;;;;;;0.90;0.90;;;9.40;96.80;;;;;;10502578;28;20240;-77
2024/03/12 04:54:47;;;;;;;0.87;0.87;;;9.40;96.90;;;;;;10537448;28;20196;-80
2024/03/12 04:59:51;;;;;;;0.90;0.90;;;9.50;96.60;;;;;;10502409;28;20301;-80
2024/03/12 05:04:53;;;;;;;0.70;0.70;;;9.50;96.50;;;;;;10509659;28;20253;-79
2024/03/12 05:09:59;;;;;;;0.60;0.60;;;9.60;96.60;;;;;;10527877;28;20323;-80
2024/03/12 05:15:03;;;;;;;0.87;0.87;;;9.60;96.90;;;;;;10509045;28;20258;-80
2024/03/12 05:20:09;;;;;;;0.80;0.80;;;9.60;97.10;;;;;;10523008;28;20265;-77
2024/03/12 05:25:19;;;;;;;0.50;0.50;;;9.60;97.60;;;;;;10535103;28;20200;-79
2024/03/12 05:30:23;;;;;;;0.70;0.70;;;9.60;97.80;;;;;;10536147;28;20217;-81
2024/03/12 05:35:29;;;;;;;0.70;0.70;;;9.60;98.00;;;;;;10497896;28;20248;-80
2024/03/12 05:40:42;;;;;;;0.80;0.80;;;9.60;98.20;;;;;;10486307;28;20208;-80
2024/03/12 05:51:07;;;;;;;0.60;0.60;;;9.60;98.40;;;;;;10528030;28;20204;-80
2024/03/12 05:56:11;;;;;;;0.70;0.70;;;9.60;98.40;;;;;;10515372;28;20631;-78
2024/03/12 06:01:15;;;;;;;0.80;0.80;;;9.60;98.30;;;;;;10528032;28;20224;-80
2024/03/12 06:06:18;;;;;;;0.80;0.80;;;9.60;98.30;;;;;;10516496;28;20216;-79
2024/03/12 06:11:20;;;;;;;0.70;0.70;;;9.60;98.30;;;;;;10524249;28;20201;-80
2024/03/12 06:16:25;;;;;;;0.50;0.50;;;9.60;98.30;;;;;;10496764;28;20220;-79
2024/03/12 06:21:27;;;;;;;0.60;0.60;;;9.60;98.40;;;;;;10521530;28;20220;-79
2024/03/12 06:26:29;;;;;;;0.60;0.60;;;9.70;98.20;;;;;;10500536;28;20597;-77
2024/03/12 06:31:34;;;;;;;0.60;0.60;;;9.70;98.30;;;;;;10506710;28;20192;-78
2024/03/12 06:36:37;;;;;;;0.50;0.50;;;9.70;98.00;;;;;;10501155;28;20234;-80
2024/03/12 06:41:41;;;;;;;0.70;0.70;;;9.80;98.00;;;;;;10532631;28;20220;-77
2024/03/12 06:46:45;;;;;;;0.60;0.60;;;9.80;98.30;;;;;;10505921;28;20684;-79
2024/03/12 06:51:48;;;;;;;0.57;0.57;;;9.80;98.00;;;;;;10498915;28;20661;-79
2024/03/12 06:56:53;;;;;;;0.60;0.60;;;9.90;98.10;;;;;;10532085;28;20701;-81
2024/03/12 07:01:57;;;;;;;0.50;0.50;;;9.90;98.10;;;;;;10508851;28;20212;-80
2024/03/12 07:06:59;;;;;;;0.40;0.40;;;10.00;97.20;;;;;;10499452;28;20217;-80
2024/03/12 07:12:02;;;;;;;0.50;0.50;;;10.00;97.20;;;;;;10498525;28;20191;-78
2024/03/12 07:17:07;;;;;;;0.60;0.60;;;10.00;97.10;;;;;;10481694;28;20591;-80
2024/03/12 07:22:10;;;;;;;0.70;0.70;;;10.10;97.20;;;;;;10508483;28;20216;-78
2024/03/12 07:27:13;;;;;;;0.90;0.90;;;10.20;97.20;;;;;;10527570;28;20205;-81
2024/03/12 07:32:17;;;;;;;0.50;0.50;;;10.20;97.30;;;;;;10494171;28;20806;-79
2024/03/12 07:37:19;;;;;;;0.60;0.60;;;10.20;97.30;;;;;;10487888;28;20327;-80
2024/03/12 07:42:22;;;;;;;0.57;0.57;;;10.30;97.30;;;;;;10502075;28;20730;-81
2024/03/12 07:47:25;;;;;;;0.60;0.60;;;10.30;97.10;;;;;;10501289;28;20224;-78
2024/03/12 07:52:28;;;;;;;0.60;0.60;;;10.30;96.90;;;;;;10522999;28;20200;-81
2024/03/12 07:57:32;;;;;;;0.50;0.50;;;10.40;96.70;;;;;;10490363;28;20249;-79
2024/03/12 08:02:39;;;;;;;0.60;0.60;;;10.30;96.80;;;;;;10505051;28;20713;-80
2024/03/12 08:07:44;;;;;;;0.60;0.60;;;10.30;97.00;;;;;;10475766;28;20216;-79
2024/03/12 08:12:47;;;;;;;0.37;0.37;;;10.30;97.00;;;;;;10503385;28;20269;-80
2024/03/12 08:17:51;;;;;;;0.53;0.53;;;10.30;97.10;;;;;;10507738;28;20216;-78
2024/03/12 08:22:53;;;;;;;0.50;0.50;;;10.40;96.60;;;;;;10498244;28;20774;-80
2024/03/12 08:27:55;;;;;;;0.40;0.40;;;10.50;96.80;;;;;;10534096;28;20216;-81
2024/03/12 08:32:59;;;;;;;0.40;0.40;;;10.60;96.60;;;;;;10508652;28;20200;-77
2024/03/12 08:38:04;;;;;;;0.40;0.40;;;10.60;96.60;;;;;;10521110;28;20701;-80
2024/03/12 08:43:06;;;;;;;0.30;0.30;;;10.60;96.60;;;;;;10498684;28;20682;-78
2024/03/12 08:48:10;;;;;;;0.40;0.40;;;10.60;96.80;;;;;;10494298;28;20224;-79
2024/03/12 08:53:13;;;;;;;0.40;0.40;;;10.60;96.50;;;;;;10477406;28;20192;-80
2024/03/12 08:58:17;;;;;;;0.30;0.30;;;10.60;96.50;;;;;;10504150;28;20231;-78
2024/03/12 09:03:21;;;;;;;0.40;0.40;;;10.60;96.80;;;;;;10517946;28;20213;-77
2024/03/12 09:08:24;;;;;;;0.40;0.40;;;10.70;96.70;;;;;;10537433;28;20220;-78
2024/03/12 09:13:26;;;;;;;0.50;0.50;;;10.80;96.70;;;;;;10509452;28;20216;-79
2024/03/12 09:18:30;;;;;;;0.40;0.40;;;10.90;95.90;;;;;;10495782;28;20341;-81
2024/03/12 09:23:33;;;;;;;0.40;0.40;;;10.90;96.10;;;;;;10497372;28;20228;-78
2024/03/12 09:28:36;;;;;;;0.50;0.50;;;11.00;95.90;;;;;;10528690;28;20269;-78
2024/03/12 09:33:40;;;;;;;0.40;0.40;;;11.00;96.00;;;;;;10468397;28;20788;-79
2024/03/12 09:38:43;;;;;;;0.40;0.40;;;11.10;96.40;;;;;;10495412;28;20228;-77
2024/03/12 09:43:48;;;;;;;0.30;0.30;;;11.30;95.70;;;;;;10522119;28;20709;-77
2024/03/12 09:48:52;;;;;;;0.30;0.30;;;11.20;95.50;;;;;;10531504;22;20279;-79
2024/03/12 09:53:55;;;;;;;0.40;0.40;;;11.20;96.00;;;;;;10572724;27;20187;-75
2024/03/12 09:58:59;;;;;;;0.40;0.40;;;11.30;95.90;;;;;;10551805;27;20219;-77
2024/03/12 10:04:04;;;;;;;0.30;0.30;;;11.30;95.90;;;;;;10503091;28;20212;-77
2024/03/12 10:09:10;;;;;;;0.20;0.20;;;11.30;96.00;;;;;;10533820;28;20272;-77
2024/03/12 10:14:13;;;;;;;0.23;0.23;;;11.40;95.60;;;;;;10532518;28;20241;-79
2024/03/12 10:19:18;;;;;;;0.30;0.30;;;11.50;95.60;;;;;;10533702;28;20224;-75
2024/03/12 10:24:22;;;;;;;0.30;0.30;;;11.50;95.90;;;;;;10527176;28;20720;-74
2024/03/12 10:29:24;;;;;;;0.30;0.30;;;11.60;95.70;;;;;;10527075;28;20219;-76
2024/03/12 10:34:30;;;;;;;0.20;0.20;;;11.60;95.90;;;;;;10523450;28;20192;-76
2024/03/12 10:39:35;;;;;;;0.30;0.30;;;11.60;95.50;;;;;;10529794;28;20211;-77
2024/03/12 10:44:40;;;;;;;0.20;0.20;;;11.60;95.50;;;;;;10526860;28;20223;-76
2024/03/12 10:49:48;;;;;;;0.30;0.30;;;11.60;95.50;;;;;;10531679;28;20230;-76
2024/03/12 10:54:51;;;;;;;0.20;0.20;;;11.60;95.80;;;;;;10530887;28;20287;-77
2024/03/12 10:59:54;;;;;;;0.30;0.30;;;11.60;95.80;;;;;;10525355;28;20219;-77
2024/03/12 11:04:58;;;;;;;0.20;0.20;;;11.60;95.80;;;;;;10531184;28;20703;-76
2024/03/12 11:10:01;;;;;;;0.20;0.20;;;11.70;95.90;;;;;;10536203;28;20626;-77
2024/03/12 11:15:04;;;;;;;0.30;0.30;;;11.70;95.50;;;;;;10530500;28;20196;-78
2024/03/12 11:20:12;;;;;;;0.30;0.30;;;11.60;95.50;;;;;;10530690;28;20589;-75
2024/03/12 11:25:27;;;;;;;0.40;0.40;;;11.60;96.00;;;;;;10531129;28;20277;-75
2024/03/12 11:30:29;;;;;;;0.30;0.30;;;11.50;95.80;;;;;;10526858;28;20750;-73
2024/03/12 11:35:34;;;;;;;0.30;0.30;;;11.50;95.90;;;;;;10519593;28;20196;-75
2024/03/12 11:40:39;;;;;;;0.30;0.30;;;11.50;95.50;;;;;;10528288;28;20227;-74
2024/03/12 11:45:45;;;;;;;0.30;0.30;;;11.50;95.70;;;;;;10530428;28;20196;-77
2024/03/12 11:50:54;;;;;;;0.30;0.30;;;11.60;95.70;;;;;;10531571;28;20272;-77
2024/03/12 11:55:59;;;;;;;0.30;0.30;;;11.70;95.60;;;;;;10530839;28;20719;-78
2024/03/12 12:01:02;;;;;;;0.30;0.30;;;11.70;95.50;;;;;;10531819;28;20211;-77
2024/03/12 12:06:09;;;;;;;0.30;0.30;;;11.70;94.90;;;;;;10530850;28;20195;-77
2024/03/12 12:11:12;;;;;;;0.30;0.30;;;11.60;94.70;;;;;;10531022;28;20223;-76
2024/03/12 12:16:16;;;;;;;0.40;0.40;;;11.70;94.60;;;;;;10530695;28;20188;-76
2024/03/12 12:21:22;;;;;;;0.30;0.30;;;11.70;94.80;;;;;;10530040;28;20223;-77
2024/03/12 12:26:25;;;;;;;0.30;0.30;;;11.70;94.60;;;;;;10519901;28;20246;-77
2024/03/12 12:31:31;;;;;;;0.40;0.40;;;11.70;94.40;;;;;;10530450;28;20223;-79
2024/03/12 12:36:38;;;;;;;0.50;0.50;;;11.70;94.00;;;;;;10526918;28;20203;-75
2024/03/12 12:41:44;;;;;;;0.33;0.33;;;11.80;93.90;;;;;;10528418;28;20230;-79
2024/03/12 12:46:47;;;;;;;0.10;0.10;;;12.00;94.20;;;;;;10528600;28;20211;-76
2024/03/12 12:51:54;;;;;;;0.20;0.20;;;12.10;93.70;;;;;;10528612;28;20204;-77
2024/03/12 12:57:01;;;;;;;0.30;0.30;;;12.00;94.00;;;;;;10535010;28;20269;-77
2024/03/12 13:02:14;;;;;;;0.30;0.30;;;11.90;93.60;;;;;;10537466;28;20245;-77
2024/03/12 13:07:31;;;;;;;0.30;0.30;;;11.90;93.80;;;;;;10536701;28;20223;-74
2024/03/12 13:12:33;;;;;;;0.30;0.30;;;11.80;92.90;;;;;;10527348;28;20207;-76
2024/03/12 13:17:35;;;;;;;0.10;0.10;;;11.70;93.50;;;;;;10536076;28;20249;-77
2024/03/12 13:22:39;;;;;;;0.20;0.20;;;11.70;93.20;;;;;;10536478;28;20223;-76
2024/03/12 13:27:43;;;;;;;0.30;0.30;;;11.70;93.10;;;;;;10536309;28;20215;-77
2024/03/12 13:32:46;;;;;;;0.33;0.33;;;11.70;93.50;;;;;;10525527;28;20184;-77
2024/03/12 13:37:50;;;;;;;0.30;0.30;;;11.90;93.80;;;;;;10534648;28;20216;-76
2024/03/12 13:42:52;;;;;;;0.30;0.30;;;12.10;93.40;;;;;;10532949;28;20216;-77
2024/03/12 13:47:54;;;;;;;0.30;0.30;;;12.30;92.90;;;;;;10533839;28;20284;-77
2024/03/12 13:52:58;;;;;;;0.30;0.30;;;12.40;92.50;;;;;;10535365;28;20199;-79
2024/03/12 13:58:01;;;;;;;0.30;0.30;;;12.50;92.60;;;;;;10532621;28;20211;-77
2024/03/12 14:03:03;;;;;;;0.30;0.30;;;12.50;92.50;;;;;;10535736;28;20227;-74
2024/03/12 14:08:08;;;;;;;0.30;0.30;;;12.50;92.60;;;;;;10533631;28;20272;-78
2024/03/12 14:13:11;;;;;;;0.30;0.30;;;12.40;92.70;;;;;;10531744;28;20711;-79
2024/03/12 14:18:15;;;;;;;0.20;0.20;;;12.30;93.20;;;;;;10529065;28;20227;-76
2024/03/12 14:23:19;;;;;;;0.10;0.10;;;12.30;93.10;;;;;;10531308;28;20223;-77
2024/03/12 14:28:22;;;;;;;0.30;0.30;;;12.20;93.20;;;;;;10530388;28;20651;-77
2024/03/12 14:33:24;;;;;;;0.40;0.40;;;12.10;93.30;;;;;;10533168;28;20191;-77
2024/03/12 14:38:28;;;;;;;0.40;0.40;;;12.10;92.80;;;;;;10533018;28;20211;-78
2024/03/12 14:43:30;;;;;;;0.40;0.40;;;12.00;92.90;;;;;;10533249;28;20589;-78
2024/03/12 14:48:33;;;;;;;0.20;0.20;;;11.90;93.10;;;;;;10534158;28;20235;-75
2024/03/12 14:53:37;;;;;;;0.50;0.50;;;11.90;92.60;;;;;;10533584;28;20195;-79
2024/03/12 14:58:39;;;;;;;0.50;0.50;;;11.80;92.40;;;;;;10532833;28;20219;-76
2024/03/12 15:03:43;;;;;;;0.40;0.40;;;11.80;92.90;;;;;;10533605;28;20696;-78
2024/03/12 15:08:48;;;;;;;0.37;0.37;;;11.80;92.90;;;;;;10531995;28;20245;-77
2024/03/12 15:13:50;;;;;;;0.53;0.53;;;11.70;92.00;;;;;;10531958;28;20679;-77
2024/03/12 15:18:53;;;;;;;0.40;0.40;;;11.70;92.90;;;;;;10532364;28;20684;-78
2024/03/12 15:23:59;;;;;;;0.50;0.50;;;11.70;93.00;;;;;;10532148;28;20215;-77
2024/03/12 15:29:01;;;;;;;0.47;0.47;;;11.80;92.90;;;;;;10530973;28;20224;-77
2024/03/12 15:34:04;;;;;;;0.40;0.40;;;11.80;92.60;;;;;;10530319;28;20199;-78
2024/03/12 15:39:07;;;;;;;0.50;0.50;;;11.80;92.70;;;;;;10528842;28;20238;-77
2024/03/12 15:44:11;;;;;;;0.50;0.50;;;11.70;92.70;;;;;;10530475;28;20693;-76
2024/03/12 15:49:14;;;;;;;0.40;0.40;;;11.60;92.90;;;;;;10565855;22;20277;-80
2024/03/12 15:54:18;;;;;;;0.50;0.50;;;11.60;92.80;;;;;;10545723;28;20195;-80
2024/03/12 15:59:20;;;;;;;0.53;0.53;;;11.50;92.80;;;;;;10518596;28;20487;-80
2024/03/12 16:04:24;;;;;;;0.50;0.50;;;11.60;93.20;;;;;;10514629;28;20219;-80
2024/03/12 16:09:28;;;;;;;0.30;0.30;;;11.60;93.30;;;;;;10504012;28;20224;-80
2024/03/12 16:14:31;;;;;;;0.50;0.50;;;11.70;93.10;;;;;;10493921;28;20197;-80
2024/03/12 16:19:33;;;;;;;0.50;0.50;;;11.70;92.90;;;;;;10525365;28;20220;-80
2024/03/12 16:24:37;;;;;;;0.60;0.60;;;11.80;92.80;;;;;;10485389;28;20630;-80
2024/03/12 16:29:39;;;;;;;0.40;0.40;;;11.70;92.90;;;;;;10530757;28;20235;-80
2024/03/12 16:34:42;;;;;;;0.33;0.33;;;11.80;92.20;;;;;;10532189;28;20202;-80
2024/03/12 16:39:46;;;;;;;0.70;0.70;;;11.70;92.70;;;;;;10511495;28;20714;-80
2024/03/12 16:44:49;;;;;;;0.50;0.50;;;11.60;92.40;;;;;;10510280;28;20296;-80
2024/03/12 16:49:53;;;;;;;0.40;0.40;;;11.50;92.70;;;;;;10516474;28;20224;-79
2024/03/12 16:54:57;;;;;;;0.60;0.60;;;11.40;93.00;;;;;;10506643;28;20185;-80
2024/03/12 17:00:00;;;;;;;0.60;0.60;;;11.50;93.50;;;;;;10524320;28;20233;-79
2024/03/12 17:05:04;;;;;;;0.20;0.20;;;11.20;95.00;;;;;;10538418;28;20212;-79
2024/03/12 17:10:09;;;;;;;0.53;0.53;;;10.90;95.40;;;;;;10515293;28;20281;-78
2024/03/12 17:15:14;;;;;;;0.40;0.40;;;10.80;96.00;;;;;;10500846;28;20200;-79
2024/03/12 17:20:17;;;;;;;0.50;0.50;;;10.80;95.70;;;;;;10506963;28;20220;-80
2024/03/12 17:25:21;;;;;;;0.60;0.60;;;10.80;95.60;;;;;;10553825;28;20212;-79
2024/03/12 17:30:24;;;;;;;0.50;0.50;;;10.90;95.10;;;;;;10548123;28;20223;-79
2024/03/12 17:35:28;;;;;;;0.60;0.60;;;10.90;94.90;;;;;;10504173;28;20187;-79
2024/03/12 17:40:33;;;;;;;0.47;0.47;;;10.80;95.20;;;;;;10542964;28;20245;-81
2024/03/12 17:45:35;;;;;;;0.40;0.40;;;10.80;95.30;;;;;;10535475;28;20640;-82
2024/03/12 17:50:38;;;;;;;0.50;0.50;;;10.80;95.40;;;;;;10543186;28;20249;-83
2024/03/12 17:55:46;;;;;;;0.40;0.40;;;10.80;95.20;;;;;;10519551;28;20556;-83
2024/03/12 18:00:50;;;;;;;0.50;0.50;;;10.80;95.40;;;;;;10530187;28;20772;-84
2024/03/12 18:05:53;;;;;;;0.50;0.50;;;10.70;95.50;;;;;;10543153;28;20230;-82
2024/03/12 18:10:59;;;;;;;0.47;0.47;;;10.70;95.40;;;;;;10554479;28;20246;-82
2024/03/12 18:16:02;;;;;;;0.57;0.57;;;10.70;95.70;;;;;;10531247;28;20181;-82
2024/03/12 18:21:06;;;;;;;0.70;0.70;;;10.70;95.90;;;;;;10536402;28;20219;-82
2024/03/12 18:26:10;;;;;;;0.63;0.63;;;10.60;96.90;;;;;;10540968;28;20213;-80
2024/03/12 18:31:12;;;;;;;0.80;0.80;;;10.40;97.30;;;;;;10534720;28;20216;-81
2024/03/12 18:36:15;;;;;;;0.60;0.60;;;10.20;97.70;;;;;;10539516;28;20616;-81
2024/03/12 18:41:19;;;;;;;0.60;0.60;;;10.10;98.30;;;;;;10524937;28;20220;-82
2024/03/12 18:46:22;;;;;;;0.53;0.53;;;10.00;98.30;;;;;;10507365;28;20277;-79
2024/03/12 18:51:25;;;;;;;0.60;0.60;;;10.10;98.40;;;;;;10514907;28;20228;-79
2024/03/12 18:56:29;;;;;;;0.60;0.60;;;10.10;98.50;;;;;;10524530;28;20205;-79
2024/03/12 19:01:33;;;;;;;0.50;0.50;;;10.10;98.30;;;;;;10521051;28;20215;-80
2024/03/12 19:06:37;;;;;;;0.40;0.40;;;10.20;98.50;;;;;;10526815;28;20634;-80
2024/03/12 19:11:41;;;;;;;0.60;0.60;;;10.20;98.40;;;;;;10527789;28;20220;-79
2024/03/12 19:16:49;;;;;;;0.40;0.40;;;10.30;98.30;;;;;;10524828;28;20204;-79
2024/03/12 19:21:52;;;;;;;0.50;0.50;;;10.40;98.20;;;;;;10526078;28;20215;-81
2024/03/12 19:26:56;;;;;;;0.50;0.50;;;10.40;97.90;;;;;;10532113;28;20211;-81
2024/03/12 19:31:59;;;;;;;0.47;0.47;;;10.40;98.10;;;;;;10524810;28;20212;-80
2024/03/12 19:37:03;;;;;;;0.50;0.50;;;10.40;98.20;;;;;;10530491;28;20192;-81
2024/03/12 19:42:08;;;;;;;0.60;0.60;;;10.30;98.50;;;;;;10526068;28;20701;-81
2024/03/12 19:47:11;;;;;;;0.60;0.60;;;10.30;98.90;;;;;;10536465;28;20237;-80
2024/03/12 19:52:14;;;;;;;0.40;0.40;;;10.20;98.90;;;;;;10554114;28;20803;-80
2024/03/12 19:57:19;;;;;;;0.63;0.63;;;10.20;99.20;;;;;;10541588;28;20188;-81
2024/03/12 20:02:21;;;;;;;0.67;0.67;;;10.10;99.40;;;;;;10526385;28;20961;-81
2024/03/12 20:07:23;;;;;;;0.60;0.60;;;10.10;99.60;;;;;;10537337;28;20281;-81
2024/03/12 20:12:27;;;;;;;0.80;0.80;;;10.10;99.80;;;;;;10521980;28;20628;-80
2024/03/12 20:17:30;;;;;;;0.93;0.93;;;10.00;99.90;;;;;;10529670;28;20192;-80
2024/03/12 20:22:32;;;;;;;0.77;0.77;;;9.80;99.90;;;;;;10535064;28;20196;-81
2024/03/12 20:27:36;;;;;;;1.10;1.10;;;9.80;99.90;;;;;;10519171;28;20223;-81
2024/03/12 20:32:40;;;;;;;0.97;0.97;;;9.70;99.90;;;;;;10515096;28;20204;-81
2024/03/12 20:37:44;;;;;;;1.00;1.00;;;9.60;99.90;;;;;;10519420;28;20216;-80
2024/03/12 20:42:48;;;;;;;1.10;1.10;;;9.60;99.90;;;;;;10519192;28;20850;-80
2024/03/12 20:47:51;;;;;;;1.00;1.00;;;9.50;99.90;;;;;;10525811;28;20219;-80
2024/03/12 20:52:54;;;;;;;1.20;1.20;;;9.40;99.90;;;;;;10519577;28;20669;-80
2024/03/12 20:57:59;;;;;;;1.03;1.03;;;9.40;99.90;;;;;;10528559;28;20635;-80
2024/03/12 21:03:03;;;;;;;1.47;1.47;;;9.30;99.90;;;;;;10507843;28;20200;-80
2024/03/12 21:08:07;;;;;;;1.30;1.30;;;9.30;99.90;;;;;;10506517;28;20212;-81
2024/03/12 21:13:12;;;;;;;1.90;1.90;;;9.30;99.90;;;;;;10536051;28;20213;-80
2024/03/12 21:18:14;;;;;;;1.43;1.43;;;9.30;99.90;;;;;;10566401;28;20224;-79
2024/03/12 21:23:17;;;;;;;1.00;1.00;;;9.30;99.90;;;;;;10574947;28;20208;-79
2024/03/12 21:28:21;;;;;;;1.50;1.50;;;9.30;99.90;;;;;;10549357;28;20269;-79
2024/03/12 21:33:23;;;;;;;1.70;1.70;;;9.20;99.90;;;;;;10522857;28;20277;-79
2024/03/12 21:38:25;;;;;;;1.90;1.90;;;9.20;99.90;;;;;;10521742;28;21011;-79
2024/03/12 21:43:29;;;;;;;2.10;2.10;;;9.20;99.90;;;;;;10512042;28;20261;-79
2024/03/12 21:48:31;;;;;;;2.20;2.20;;;9.20;99.90;;;;;;10519063;28;20224;-79
2024/03/12 21:53:34;;;;;;;2.10;2.10;;;9.10;99.90;;;;;;10521500;28;20226;-80
2024/03/12 21:58:42;;;;;;;2.60;2.60;;;9.10;99.90;;;;;;10518303;28;20217;-80
2024/03/12 22:03:48;;;;;;;2.40;2.40;;;9.10;99.90;;;;;;10524967;28;20197;-80
2024/03/12 22:08:51;;;;;;;3.20;3.20;;;9.00;99.90;;;;;;10522765;28;20668;-80
2024/03/12 22:13:54;;;;;;;3.00;3.00;;;9.00;99.90;;;;;;10506589;28;20197;-80
2024/03/12 22:18:57;;;;;;;3.27;3.27;;;8.90;99.90;;;;;;10531097;28;20224;-80
2024/03/12 22:24:01;;;;;;;3.40;3.40;;;8.90;99.90;;;;;;10530892;28;20219;-79
2024/03/12 22:29:04;;;;;;;3.63;3.63;;;8.80;99.90;;;;;;10512915;28;20227;-79
2024/03/12 22:34:07;;;;;;;4.50;4.50;;;8.80;99.90;;;;;;10532827;28;20192;-79
2024/03/12 22:39:10;;;;;;;4.80;4.80;;;8.70;99.90;;;;;;10513611;28;20238;-80
2024/03/12 22:44:14;;;;;;;5.47;5.47;;;8.60;99.90;;;;;;10525484;28;20674;-80
2024/03/12 22:49:17;;;;;;;5.57;5.57;;;8.60;99.90;;;;;;10523697;28;20312;-80
2024/03/12 22:54:20;;;;;;;5.80;5.80;;;8.60;99.90;;;;;;10511819;28;20573;-80
2024/03/12 22:59:26;;;;;;;5.70;5.70;;;8.60;99.90;;;;;;10525599;28;20273;-80
2024/03/12 23:04:29;;;;;;;6.70;6.70;;;8.50;99.90;;;;;;10525733;28;20278;-80
2024/03/12 23:09:32;;;;;;;5.97;5.97;;;8.50;99.90;;;;;;10509678;28;20220;-80
2024/03/12 23:14:36;;;;;;;6.30;6.30;;;8.50;99.90;;;;;;10499094;28;20246;-80
2024/03/12 23:19:40;;;;;;;5.87;5.87;;;8.60;99.90;;;;;;10528811;28;20606;-78
2024/03/12 23:24:43;;;;;;;6.57;6.57;;;8.60;99.90;;;;;;10507310;28;20220;-80
2024/03/12 23:29:47;;;;;;;6.50;6.50;;;8.60;99.90;;;;;;10527724;28;20212;-80
2024/03/12 23:34:49;;;;;;;6.17;6.17;;;8.70;99.90;;;;;;10513246;28;20199;-80
2024/03/12 23:39:51;;;;;;;6.60;6.60;;;8.70;99.90;;;;;;10535387;28;20273;-79
2024/03/12 23:44:57;;;;;;;6.93;6.93;;;8.70;99.90;;;;;;10523667;28;20273;-79
2024/03/12 23:49:59;;;;;;;5.93;5.93;;;8.70;99.90;;;;;;10521400;28;20301;-80
2024/03/12 23:55:01;;;;;;;6.00;6.00;;;8.60;99.90;;;;;;10516472;28;20188;-80
